CheckWX is a tool to help pilots better visualize weather data.  It is not intended as a substitute for an official pre-flight weather briefing.

19:15:57 UTC

KTKX METAR
Kennett Memorial Airport
Kennett, Missouri, USA
Current

21 mins ago

KTKX 201855Z AUTO 14010KT 10SM CLR 19/03 A3013 RMK AO2
Observed
Nov-20 @ 18:55 UTC
Wind
  • 140° at 10 KTS
Visibility
10 SM
Flight Rules
VFR
Cloud Levels
  • Clear skies
Temperature
19°C / 66°F
Dewpoint
C / 37°F
Humidity
35%
Altimeter
30.13" Hg
Pressure
1020.32 hPa
Previous

41 mins ago

KTKX 201835Z AUTO 16010KT 10SM CLR 20/03 A3014 RMK AO2
Observed
Nov-20 @ 18:35 UTC
Wind
  • 160° at 10 KTS
Visibility
10 SM
Flight Rules
VFR
Cloud Levels
  • Clear skies
Temperature
20°C / 68°F
Dewpoint
C / 37°F
Humidity
33%
Altimeter
30.14" Hg
Pressure
1020.62 hPa
Previous

1 hour ago

KTKX 201815Z AUTO 15010KT 10SM CLR 20/04 A3015 RMK AO2
Observed
Nov-20 @ 18:15 UTC
Wind
  • 150° at 10 KTS
Visibility
10 SM
Flight Rules
VFR
Cloud Levels
  • Clear skies
Temperature
20°C / 68°F
Dewpoint
C / 39°F
Humidity
35%
Altimeter
30.15" Hg
Pressure
1021.02 hPa